createdAt,value
2022-09-11T00:01:09.708Z,21.14
2022-09-11T00:03:36.698Z,21.04
2022-09-11T00:06:08.471Z,20.96
2022-09-11T00:08:35.705Z,20.89
2022-09-11T00:11:07.987Z,20.83
2022-09-11T00:13:35.779Z,20.77
2022-09-11T00:16:05.834Z,20.68
2022-09-11T00:18:36.096Z,20.57
2022-09-11T00:21:04.788Z,20.43
2022-09-11T00:23:31.840Z,20.26
2022-09-11T00:26:02.496Z,20.10
2022-09-11T00:28:29.429Z,19.91
2022-09-11T00:31:00.362Z,19.87
2022-09-11T00:33:27.850Z,19.80
2022-09-11T00:35:57.195Z,19.54
2022-09-11T00:38:25.653Z,19.30
2022-09-11T00:40:52.794Z,19.18
2022-09-11T00:43:19.644Z,19.07
2022-09-11T00:45:50.175Z,18.97
2022-09-11T00:48:18.149Z,18.90
2022-09-11T00:50:45.507Z,18.83
2022-09-11T00:53:14.266Z,18.81
2022-09-11T00:55:42.077Z,18.83
2022-09-11T00:58:11.231Z,18.87
2022-09-11T01:00:39.570Z,18.90
2022-09-11T01:03:06.722Z,18.89
2022-09-11T01:05:35.017Z,18.85
2022-09-11T01:08:03.231Z,18.82
2022-09-11T01:10:42.749Z,18.80
2022-09-11T01:13:33.308Z,18.78
2022-09-11T01:16:04.377Z,18.77
2022-09-11T01:18:40.062Z,18.77
2022-09-11T01:21:32.565Z,18.77
2022-09-11T01:24:09.282Z,18.79
2022-09-11T01:26:56.112Z,18.84
2022-09-11T01:29:49.379Z,18.90
2022-09-11T01:32:24.694Z,18.97
2022-09-11T01:35:04.793Z,19.03
2022-09-11T01:37:40.148Z,19.08
2022-09-11T01:40:19.109Z,19.13
2022-09-11T01:42:46.599Z,19.18
2022-09-11T01:45:14.287Z,19.22
2022-09-11T01:47:42.373Z,19.26
2022-09-11T01:50:10.987Z,19.33
2022-09-11T01:52:59.675Z,19.38
2022-09-11T01:55:50.157Z,19.43
2022-09-11T01:58:23.357Z,19.49
2022-09-11T02:00:51.587Z,19.55
2022-09-11T02:03:25.859Z,19.58
2022-09-11T02:05:57.734Z,19.59
2022-09-11T02:08:44.300Z,19.64
2022-09-11T02:11:12.398Z,19.73
2022-09-11T02:13:43.314Z,19.81
2022-09-11T02:16:17.973Z,19.87
2022-09-11T02:19:08.002Z,19.92
2022-09-11T02:21:36.854Z,19.98
2022-09-11T02:24:05.250Z,20.04
2022-09-11T02:26:34.187Z,20.06
2022-09-11T02:29:01.553Z,20.08
2022-09-11T02:31:28.624Z,20.10
2022-09-11T02:33:56.276Z,20.13
2022-09-11T02:36:32.853Z,20.17
2022-09-11T02:39:10.961Z,20.20
2022-09-11T02:41:59.421Z,20.24
2022-09-11T02:45:21.014Z,20.29
2022-09-11T02:48:29.077Z,20.35
2022-09-11T02:50:56.703Z,20.41
2022-09-11T02:53:32.570Z,20.45
2022-09-11T02:56:18.418Z,20.47
2022-09-11T02:58:57.371Z,20.49
2022-09-11T03:01:25.123Z,20.52
2022-09-11T03:03:52.481Z,20.52
2022-09-11T03:06:21.850Z,20.54
2022-09-11T03:08:49.043Z,20.56
2022-09-11T03:11:17.912Z,20.59
2022-09-11T03:13:45.394Z,20.62
2022-09-11T03:16:13.561Z,20.64
2022-09-11T03:18:40.725Z,20.69
2022-09-11T03:21:07.565Z,20.71
2022-09-11T03:23:34.613Z,20.79
2022-09-11T03:26:02.276Z,20.80
2022-09-11T03:28:31.519Z,20.80
2022-09-11T03:30:59.451Z,20.83
2022-09-11T03:33:26.596Z,20.84
2022-09-11T03:35:53.746Z,20.81
2022-09-11T03:38:20.724Z,20.77
2022-09-11T03:40:47.743Z,20.72
2022-09-11T03:43:16.644Z,20.69
2022-09-11T03:45:44.956Z,20.68
2022-09-11T03:48:12.378Z,20.69
2022-09-11T03:50:39.918Z,20.68
2022-09-11T03:53:06.884Z,20.67
2022-09-11T03:55:33.833Z,20.65
2022-09-11T03:58:01.191Z,20.63
2022-09-11T04:00:28.349Z,20.58
2022-09-11T04:02:56.016Z,20.52
2022-09-11T04:05:26.218Z,20.47
2022-09-11T04:07:54.103Z,20.45
2022-09-11T04:10:21.695Z,20.42
2022-09-11T04:12:49.019Z,20.41
2022-09-11T04:15:15.972Z,20.40
2022-09-11T04:17:43.633Z,20.39
2022-09-11T04:20:10.820Z,20.39
2022-09-11T04:22:39.371Z,20.39
2022-09-11T04:25:07.347Z,20.41
2022-09-11T04:27:34.568Z,20.39
2022-09-11T04:30:01.350Z,20.43
2022-09-11T04:32:29.334Z,20.51
2022-09-11T04:34:56.800Z,20.56
2022-09-11T04:37:23.537Z,20.64
2022-09-11T04:39:51.140Z,20.72
2022-09-11T04:42:18.482Z,20.73
2022-09-11T04:44:47.057Z,20.70
2022-09-11T04:47:18.766Z,20.71
2022-09-11T04:49:49.311Z,20.73
2022-09-11T04:52:16.083Z,20.75
2022-09-11T04:54:43.749Z,20.77
2022-09-11T04:57:10.595Z,20.77
2022-09-11T04:59:37.335Z,20.78
2022-09-11T05:02:04.429Z,20.80
2022-09-11T05:04:32.251Z,20.83
2022-09-11T05:06:59.611Z,20.89
2022-09-11T05:09:27.830Z,20.98
2022-09-11T05:11:57.336Z,21.08
2022-09-11T05:14:25.676Z,21.18
2022-09-11T05:16:53.238Z,21.26
2022-09-11T05:19:20.077Z,21.32
2022-09-11T05:21:46.832Z,21.35
2022-09-11T05:24:14.486Z,21.39
2022-09-11T05:26:41.329Z,21.45
2022-09-11T05:29:15.658Z,21.51
2022-09-11T05:31:43.097Z,21.53
2022-09-11T05:34:10.051Z,21.54
2022-09-11T05:36:37.630Z,21.54
2022-09-11T05:39:04.762Z,21.55
2022-09-11T05:41:31.504Z,21.57
2022-09-11T05:43:59.687Z,21.60
2022-09-11T05:46:26.519Z,21.62
2022-09-11T05:48:53.880Z,21.64
2022-09-11T05:51:21.948Z,21.68
2022-09-11T05:53:52.723Z,21.75
2022-09-11T05:56:21.691Z,21.80
2022-09-11T05:58:49.038Z,21.87
2022-09-11T06:01:21.384Z,22.02
2022-09-11T06:03:49.692Z,22.09
2022-09-11T06:06:19.005Z,22.15
2022-09-11T06:08:47.586Z,22.21
2022-09-11T06:11:16.929Z,22.24
2022-09-11T06:13:46.602Z,22.27
2022-09-11T06:16:18.603Z,22.30
2022-09-11T06:18:50.230Z,22.31
2022-09-11T06:21:22.282Z,22.29
2022-09-11T06:23:50.061Z,22.27
2022-09-11T06:26:18.544Z,22.29
2022-09-11T06:28:47.656Z,22.30
2022-09-11T06:31:16.923Z,22.31
2022-09-11T06:33:44.317Z,22.31
2022-09-11T06:36:13.911Z,22.30
2022-09-11T06:38:41.591Z,22.27
2022-09-11T06:41:12.707Z,22.26
2022-09-11T06:43:40.062Z,22.24
2022-09-11T06:46:14.389Z,22.14
2022-09-11T06:48:46.299Z,22.09
2022-09-11T06:51:15.604Z,22.08
2022-09-11T06:53:42.708Z,22.08
2022-09-11T06:56:17.400Z,22.14
2022-09-11T06:58:45.456Z,22.15
2022-09-11T07:01:14.019Z,22.32
2022-09-11T07:03:49.391Z,22.40
2022-09-11T07:06:18.438Z,22.49
2022-09-11T07:08:52.311Z,22.58
2022-09-11T07:11:19.917Z,22.67
2022-09-11T07:13:47.124Z,22.80
2022-09-11T07:16:14.929Z,22.95
2022-09-11T07:18:43.473Z,23.10
2022-09-11T07:21:19.428Z,23.35
2022-09-11T07:23:50.909Z,23.61
2022-09-11T07:26:18.439Z,23.79
2022-09-11T07:28:48.928Z,23.98
2022-09-11T07:31:21.049Z,24.18
2022-09-11T07:33:49.016Z,24.34
2022-09-11T07:36:18.872Z,24.44
2022-09-11T07:38:54.871Z,24.50
2022-09-11T07:41:42.213Z,24.54
2022-09-11T07:44:13.121Z,24.59
2022-09-11T07:46:55.146Z,24.65
2022-09-11T07:49:28.958Z,24.67
2022-09-11T07:52:17.132Z,24.69
2022-09-11T07:54:47.531Z,24.70
2022-09-11T07:57:29.348Z,24.73
2022-09-11T08:00:04.057Z,24.79
2022-09-11T08:02:42.220Z,24.82
2022-09-11T08:05:09.318Z,24.85
2022-09-11T08:07:45.071Z,24.88
2022-09-11T08:10:27.323Z,24.89
2022-09-11T08:12:59.304Z,24.81
2022-09-11T08:15:31.206Z,24.72
2022-09-11T08:18:05.833Z,24.72
2022-09-11T08:20:32.993Z,24.74
2022-09-11T08:23:00.878Z,24.76
2022-09-11T08:25:28.937Z,24.83
2022-09-11T08:28:05.302Z,24.91
2022-09-11T08:30:45.459Z,25.03
2022-09-11T08:33:22.333Z,25.28
2022-09-11T08:35:57.981Z,25.63
2022-09-11T08:38:25.544Z,25.83
2022-09-11T08:40:53.612Z,25.94
2022-09-11T08:43:28.341Z,26.11
2022-09-11T08:45:57.111Z,26.27
2022-09-11T08:48:29.707Z,26.45
2022-09-11T08:50:57.583Z,26.70
2022-09-11T08:53:25.858Z,27.02
2022-09-11T08:55:55.169Z,27.21
2022-09-11T08:58:48.233Z,27.38
2022-09-11T09:01:57.522Z,27.49
2022-09-11T09:04:41.617Z,27.40
2022-09-11T09:07:28.442Z,27.36
2022-09-11T09:10:01.220Z,27.49
2022-09-11T09:12:45.893Z,27.60
2022-09-11T09:15:17.344Z,27.67
2022-09-11T09:17:53.858Z,27.82
2022-09-11T09:20:23.432Z,28.11
2022-09-11T09:22:57.274Z,28.30
2022-09-11T09:25:24.091Z,28.34
2022-09-11T09:27:55.442Z,28.36
2022-09-11T09:30:27.627Z,28.45
2022-09-11T09:33:26.095Z,28.71
2022-09-11T09:35:54.554Z,29.07
2022-09-11T09:38:26.412Z,29.40
2022-09-11T09:41:12.945Z,29.56
2022-09-11T09:44:05.479Z,29.68
2022-09-11T09:46:45.459Z,29.88
2022-09-11T09:49:30.115Z,30.05
2022-09-11T09:52:04.527Z,30.22
2022-09-11T09:54:34.020Z,30.31
2022-09-11T09:57:02.622Z,30.29
2022-09-11T09:59:35.496Z,30.36
2022-09-11T10:02:03.258Z,30.53
2022-09-11T10:04:31.557Z,30.73
2022-09-11T10:07:12.041Z,30.91
2022-09-11T10:09:47.139Z,30.99
2022-09-11T10:12:22.611Z,30.93
2022-09-11T10:14:55.380Z,30.92
2022-09-11T10:17:35.543Z,31.03
2022-09-11T10:20:18.601Z,31.01
2022-09-11T10:22:45.907Z,30.90
2022-09-11T10:25:31.825Z,30.77
2022-09-11T10:28:12.285Z,30.64
2022-09-11T10:30:40.510Z,30.54
2022-09-11T10:33:26.861Z,30.39
2022-09-11T10:35:55.961Z,30.33
2022-09-11T10:38:28.133Z,30.49
2022-09-11T10:41:15.458Z,30.76
2022-09-11T10:43:51.212Z,30.97
2022-09-11T10:46:18.060Z,30.97
2022-09-11T10:49:16.791Z,30.75
2022-09-11T10:51:57.941Z,30.43
2022-09-11T10:54:47.094Z,30.25
2022-09-11T10:57:37.722Z,30.15
2022-09-11T11:00:21.267Z,30.17
2022-09-11T11:02:49.150Z,30.22
2022-09-11T11:05:41.072Z,30.30
2022-09-11T11:08:28.392Z,30.52
2022-09-11T11:11:14.830Z,30.72
2022-09-11T11:14:05.354Z,30.88
2022-09-11T11:16:39.778Z,31.09
2022-09-11T11:19:24.027Z,31.29
2022-09-11T11:21:57.608Z,31.56
2022-09-11T11:24:37.570Z,31.84
2022-09-11T11:27:24.797Z,32.09
2022-09-11T11:30:08.328Z,32.28
2022-09-11T11:32:54.216Z,32.48
2022-09-11T11:35:23.414Z,32.62
2022-09-11T11:37:52.149Z,32.79
2022-09-11T11:40:37.511Z,32.96
2022-09-11T11:43:12.002Z,33.10
2022-09-11T11:45:45.172Z,33.21
2022-09-11T11:48:40.265Z,33.20
2022-09-11T11:51:09.168Z,33.10
2022-09-11T11:53:38.365Z,32.93
2022-09-11T11:56:17.313Z,32.80
2022-09-11T11:59:00.342Z,32.87
2022-09-11T12:01:39.515Z,32.94
2022-09-11T12:04:34.379Z,32.91
2022-09-11T12:07:01.384Z,32.70
2022-09-11T12:09:33.860Z,32.61
2022-09-11T12:12:05.781Z,32.75
2022-09-11T12:14:34.456Z,32.90
2022-09-11T12:17:25.775Z,32.95
2022-09-11T12:20:37.203Z,32.95
2022-09-11T12:23:04.626Z,32.67
2022-09-11T12:25:32.908Z,32.41
2022-09-11T12:28:22.084Z,32.24
2022-09-11T12:31:03.605Z,32.11
2022-09-11T12:33:48.945Z,32.09
2022-09-11T12:36:30.432Z,32.06
2022-09-11T12:39:07.674Z,31.92
2022-09-11T12:41:35.968Z,31.67
2022-09-11T12:44:04.901Z,31.41
2022-09-11T12:46:31.747Z,31.23
2022-09-11T12:49:21.485Z,31.04
2022-09-11T12:51:55.263Z,30.80
2022-09-11T12:54:31.710Z,30.62
2022-09-11T12:57:06.848Z,30.43
2022-09-11T12:59:38.769Z,30.35
2022-09-11T13:02:25.765Z,30.36
2022-09-11T13:04:53.811Z,30.36
2022-09-11T13:07:34.457Z,30.35
2022-09-11T13:10:08.184Z,30.39
2022-09-11T13:12:49.446Z,30.54
2022-09-11T13:15:36.518Z,30.65
2022-09-11T13:18:36.286Z,30.65
2022-09-11T13:21:06.288Z,30.52
2022-09-11T13:23:34.758Z,30.38
2022-09-11T13:26:02.043Z,30.21
2022-09-11T13:28:28.990Z,30.05
2022-09-11T13:31:00.664Z,29.97
2022-09-11T13:33:29.534Z,29.94
2022-09-11T13:36:02.750Z,29.88
2022-09-11T13:38:32.347Z,29.87
2022-09-11T13:41:12.806Z,29.86
2022-09-11T13:44:00.336Z,29.84
2022-09-11T13:46:35.579Z,29.90
2022-09-11T13:49:02.775Z,29.85
2022-09-11T13:51:30.132Z,29.65
2022-09-11T13:54:07.929Z,29.51
2022-09-11T13:56:47.509Z,29.42
2022-09-11T13:59:36.433Z,29.34
2022-09-11T14:02:22.498Z,29.16
2022-09-11T14:04:52.446Z,28.91
2022-09-11T14:07:24.519Z,28.71
2022-09-11T14:10:08.696Z,28.57
2022-09-11T14:12:35.950Z,28.46
2022-09-11T14:15:09.255Z,28.41
2022-09-11T14:17:40.743Z,28.37
2022-09-11T14:20:14.002Z,28.33
2022-09-11T14:22:41.865Z,28.35
2022-09-11T14:25:09.220Z,28.40
2022-09-11T14:27:37.656Z,28.48
2022-09-11T14:30:28.296Z,28.62
2022-09-11T14:33:17.566Z,28.79
2022-09-11T14:35:50.509Z,28.87
2022-09-11T14:38:25.692Z,28.84
2022-09-11T14:41:05.534Z,28.72
2022-09-11T14:43:49.500Z,28.60
2022-09-11T14:46:27.222Z,28.50
2022-09-11T14:49:00.993Z,28.47
2022-09-11T14:51:36.229Z,28.50
2022-09-11T14:54:20.886Z,28.54
2022-09-11T14:56:58.910Z,28.54
2022-09-11T14:59:31.438Z,28.50
2022-09-11T15:02:05.085Z,28.46
2022-09-11T15:04:33.548Z,28.46
2022-09-11T15:07:03.563Z,28.44
2022-09-11T15:09:38.389Z,28.40
2022-09-11T15:12:14.093Z,28.34
2022-09-11T15:14:57.551Z,28.27
2022-09-11T15:17:38.035Z,28.23
2022-09-11T15:20:12.658Z,28.15
2022-09-11T15:22:40.527Z,28.05
2022-09-11T15:25:26.306Z,27.95
2022-09-11T15:28:14.037Z,27.81
2022-09-11T15:31:01.189Z,27.65
2022-09-11T15:33:38.655Z,27.52
2022-09-11T15:36:11.978Z,27.39
2022-09-11T15:38:46.907Z,27.26
2022-09-11T15:41:13.743Z,27.12
2022-09-11T15:43:41.105Z,26.99
2022-09-11T15:46:11.527Z,26.84
2022-09-11T15:48:38.894Z,26.71
2022-09-11T15:51:12.725Z,26.58
2022-09-11T15:53:40.203Z,26.37
2022-09-11T15:56:09.411Z,26.16
2022-09-11T15:58:37.350Z,25.99
2022-09-11T16:01:05.805Z,25.84
2022-09-11T16:03:33.586Z,25.67
2022-09-11T16:06:01.251Z,25.51
2022-09-11T16:08:28.316Z,25.37
2022-09-11T16:10:55.147Z,25.23
2022-09-11T16:13:22.546Z,25.10
2022-09-11T16:15:51.954Z,24.94
2022-09-11T16:18:19.375Z,24.76
2022-09-11T16:20:58.105Z,24.61
2022-09-11T16:23:26.746Z,24.45
2022-09-11T16:25:55.182Z,24.31
2022-09-11T16:28:22.739Z,24.17
2022-09-11T16:30:55.872Z,24.03
2022-09-11T16:33:24.015Z,23.87
2022-09-11T16:36:08.377Z,23.72
2022-09-11T16:38:39.620Z,23.58
2022-09-11T16:41:09.364Z,23.46
2022-09-11T16:43:37.196Z,23.32
2022-09-11T16:46:04.563Z,23.22
2022-09-11T16:48:31.698Z,23.12
2022-09-11T16:50:59.913Z,23.04
2022-09-11T16:53:28.858Z,22.92
2022-09-11T16:55:56.342Z,22.81
2022-09-11T16:58:23.672Z,22.70
2022-09-11T17:00:51.205Z,22.61
2022-09-11T17:03:18.255Z,22.52
2022-09-11T17:05:48.607Z,22.45
2022-09-11T17:08:16.265Z,22.41
2022-09-11T17:10:47.405Z,22.37
2022-09-11T17:13:14.348Z,22.29
2022-09-11T17:15:43.586Z,22.23
2022-09-11T17:18:11.308Z,22.17
2022-09-11T17:20:39.174Z,22.11
2022-09-11T17:23:07.254Z,22.04
2022-09-11T17:25:35.223Z,21.98
2022-09-11T17:28:02.811Z,21.95
2022-09-11T17:30:29.841Z,21.91
2022-09-11T17:32:57.477Z,21.86
2022-09-11T17:35:24.421Z,21.79
2022-09-11T17:37:52.906Z,21.76
2022-09-11T17:40:20.355Z,21.74
2022-09-11T17:42:48.841Z,21.72
2022-09-11T17:45:15.886Z,21.69
2022-09-11T17:47:43.340Z,21.65
2022-09-11T17:50:11.207Z,21.62
2022-09-11T17:52:38.868Z,21.59
2022-09-11T17:55:06.327Z,21.57
2022-09-11T17:57:34.088Z,21.54
2022-09-11T18:00:01.513Z,21.52
2022-09-11T18:02:29.826Z,21.48
2022-09-11T18:04:57.430Z,21.47
2022-09-11T18:07:24.796Z,21.46
2022-09-11T18:09:56.120Z,21.44
2022-09-11T18:12:26.208Z,21.41
2022-09-11T18:14:56.315Z,21.38
2022-09-11T18:17:23.156Z,21.36
2022-09-11T18:19:50.510Z,21.35
2022-09-11T18:22:19.826Z,21.35
2022-09-11T18:24:47.589Z,21.37
2022-09-11T18:27:14.828Z,21.39
2022-09-11T18:29:42.318Z,21.38
2022-09-11T18:32:10.268Z,21.36
2022-09-11T18:34:38.079Z,21.28
2022-09-11T18:37:04.965Z,21.20
2022-09-11T18:39:31.917Z,21.15
2022-09-11T18:42:00.116Z,21.08
2022-09-11T18:44:27.054Z,21.07
2022-09-11T18:46:54.599Z,21.04
2022-09-11T18:49:22.893Z,21.01
2022-09-11T18:51:50.356Z,21.00
2022-09-11T18:54:20.813Z,20.98
2022-09-11T18:56:49.257Z,20.98
2022-09-11T18:59:16.227Z,20.98
2022-09-11T19:01:44.163Z,20.96
2022-09-11T19:04:12.523Z,20.91
2022-09-11T19:06:39.841Z,20.88
2022-09-11T19:09:08.429Z,20.85
2022-09-11T19:11:36.197Z,20.85
2022-09-11T19:14:05.195Z,20.85
2022-09-11T19:16:32.693Z,20.85
2022-09-11T19:19:00.411Z,20.85
2022-09-11T19:21:27.793Z,20.84
2022-09-11T19:24:00.575Z,20.85
2022-09-11T19:26:35.279Z,20.85
2022-09-11T19:29:02.987Z,20.84
2022-09-11T19:31:30.206Z,20.83
2022-09-11T19:34:00.216Z,20.83
2022-09-11T19:36:28.036Z,20.84
2022-09-11T19:38:56.136Z,20.84
2022-09-11T19:41:24.704Z,20.85
2022-09-11T19:43:52.042Z,20.85
2022-09-11T19:46:24.331Z,20.87
2022-09-11T19:48:53.654Z,20.88
2022-09-11T19:51:23.578Z,20.88
2022-09-11T19:53:51.808Z,20.88
2022-09-11T19:56:19.324Z,20.85
2022-09-11T19:58:46.678Z,20.81
2022-09-11T20:01:18.266Z,20.79
2022-09-11T20:03:46.081Z,20.78
2022-09-11T20:06:14.080Z,20.76
2022-09-11T20:08:43.513Z,20.73
2022-09-11T20:11:12.435Z,20.70
2022-09-11T20:13:39.806Z,20.69
2022-09-11T20:16:08.393Z,20.71
2022-09-11T20:18:35.797Z,20.72
2022-09-11T20:21:07.251Z,20.73
2022-09-11T20:23:34.942Z,20.78
2022-09-11T20:26:16.391Z,20.79
2022-09-11T20:28:45.205Z,20.80
2022-09-11T20:31:21.902Z,20.78
2022-09-11T20:33:49.757Z,20.72
2022-09-11T20:36:17.588Z,20.64
2022-09-11T20:38:45.118Z,20.61
2022-09-11T20:41:13.471Z,20.61
2022-09-11T20:43:41.067Z,20.62
2022-09-11T20:46:07.987Z,20.62
2022-09-11T20:48:35.251Z,20.63
2022-09-11T20:51:12.127Z,20.65
2022-09-11T20:53:41.823Z,20.67
2022-09-11T20:56:09.813Z,20.65
2022-09-11T20:58:37.360Z,20.63
2022-09-11T21:01:06.017Z,20.61
2022-09-11T21:03:33.741Z,20.57
2022-09-11T21:06:08.163Z,20.53
2022-09-11T21:08:36.042Z,20.50
2022-09-11T21:11:03.871Z,20.49
2022-09-11T21:13:31.482Z,20.47
2022-09-11T21:15:58.967Z,20.46
2022-09-11T21:18:26.612Z,20.47
2022-09-11T21:20:57.659Z,20.47
2022-09-11T21:23:24.917Z,20.47
2022-09-11T21:25:52.898Z,20.47
2022-09-11T21:28:19.917Z,20.48
2022-09-11T21:30:47.120Z,20.49
2022-09-11T21:33:13.946Z,20.49
2022-09-11T21:35:41.202Z,20.54
2022-09-11T21:38:09.076Z,20.55
2022-09-11T21:40:36.231Z,20.55
2022-09-11T21:43:04.714Z,20.54
2022-09-11T21:45:32.078Z,20.52
2022-09-11T21:47:59.139Z,20.50
2022-09-11T21:50:25.978Z,20.49
2022-09-11T21:52:53.851Z,20.48
2022-09-11T21:55:21.515Z,20.48
2022-09-11T21:57:49.591Z,20.47
2022-09-11T22:00:16.937Z,20.47
2022-09-11T22:02:43.800Z,20.46
2022-09-11T22:05:11.259Z,20.45
2022-09-11T22:07:39.787Z,20.45
2022-09-11T22:10:08.352Z,20.46
2022-09-11T22:12:35.284Z,20.47
2022-09-11T22:15:02.334Z,20.49
2022-09-11T22:17:29.180Z,20.53
2022-09-11T22:19:56.637Z,20.54
2022-09-11T22:22:24.094Z,20.55
2022-09-11T22:24:51.045Z,20.55
2022-09-11T22:27:17.997Z,20.54
2022-09-11T22:29:47.104Z,20.48
2022-09-11T22:32:14.051Z,20.48
2022-09-11T22:34:41.102Z,20.49
2022-09-11T22:37:08.769Z,20.48
2022-09-11T22:39:35.617Z,20.45
2022-09-11T22:42:04.666Z,20.43
2022-09-11T22:44:31.879Z,20.45
2022-09-11T22:46:58.726Z,20.45
2022-09-11T22:49:25.784Z,20.44
2022-09-11T22:51:52.731Z,20.40
2022-09-11T22:54:19.684Z,20.39
2022-09-11T22:56:47.045Z,20.37
2022-09-11T22:59:14.708Z,20.35
2022-09-11T23:01:41.491Z,20.35
2022-09-11T23:04:08.611Z,20.31
2022-09-11T23:06:54.505Z,20.27
2022-09-11T23:09:21.563Z,20.20
2022-09-11T23:11:49.433Z,20.18
2022-09-11T23:14:16.789Z,20.16
2022-09-11T23:16:44.015Z,20.14
2022-09-11T23:19:12.342Z,20.15
2022-09-11T23:21:40.003Z,20.17
2022-09-11T23:24:06.955Z,20.17
2022-09-11T23:26:34.415Z,20.11
2022-09-11T23:29:01.571Z,20.14
2022-09-11T23:31:30.420Z,20.17
2022-09-11T23:33:59.574Z,20.19
2022-09-11T23:36:26.684Z,20.21
2022-09-11T23:38:54.285Z,20.22
2022-09-11T23:41:21.443Z,20.25
2022-09-11T23:43:48.291Z,20.27
2022-09-11T23:46:15.750Z,20.26
2022-09-11T23:48:42.703Z,20.23
2022-09-11T23:51:10.631Z,20.18
2022-09-11T23:53:39.410Z,20.14
2022-09-11T23:56:10.696Z,20.14
2022-09-11T23:58:40.202Z,20.12
